createdAt,value
2023-03-03T00:00:34.442Z,12.70
2023-03-03T00:03:09.388Z,12.80
2023-03-03T00:05:40.304Z,13.00
2023-03-03T00:08:12.148Z,12.80
2023-03-03T00:10:43.042Z,12.80
2023-03-03T00:13:24.096Z,12.70
2023-03-03T00:16:21.137Z,12.50
2023-03-03T00:18:53.126Z,12.70
2023-03-03T00:21:29.968Z,12.70
2023-03-03T00:24:22.403Z,12.90
2023-03-03T00:27:01.253Z,12.80
2023-03-03T00:29:41.074Z,13.00
2023-03-03T00:32:21.251Z,13.20
2023-03-03T00:34:55.046Z,13.00
2023-03-03T00:37:35.798Z,12.90
2023-03-03T00:40:22.091Z,12.50
2023-03-03T00:42:59.901Z,12.60
2023-03-03T00:46:00.277Z,13.00
2023-03-03T00:48:43.325Z,12.80
2023-03-03T00:51:23.256Z,13.00
2023-03-03T00:53:54.948Z,12.80
2023-03-03T00:56:27.415Z,12.30
2023-03-03T00:58:58.275Z,12.70
2023-03-03T01:01:29.241Z,12.40
2023-03-03T01:04:00.172Z,12.70
2023-03-03T01:06:31.078Z,12.60
2023-03-03T01:09:02.047Z,12.20
2023-03-03T01:11:32.948Z,12.80
2023-03-03T01:14:03.953Z,12.60
2023-03-03T01:16:35.033Z,12.60
2023-03-03T01:19:05.908Z,12.80
2023-03-03T01:21:36.891Z,11.40
2023-03-03T01:24:07.902Z,11.40
2023-03-03T01:26:39.029Z,9.00
2023-03-03T01:29:10.070Z,8.70
2023-03-03T01:31:40.998Z,8.50
2023-03-03T01:34:11.942Z,8.70
2023-03-03T01:36:42.809Z,8.50
2023-03-03T01:39:13.802Z,8.30
2023-03-03T01:41:44.704Z,8.50
2023-03-03T01:44:16.477Z,8.50
2023-03-03T01:47:00.974Z,8.60
2023-03-03T01:49:44.327Z,8.60
2023-03-03T01:52:30.361Z,8.30
2023-03-03T01:55:10.198Z,8.20
2023-03-03T01:57:49.007Z,8.40
2023-03-03T02:00:20.206Z,8.30
2023-03-03T02:02:51.715Z,8.50
2023-03-03T02:05:22.916Z,8.70
2023-03-03T02:07:54.079Z,8.20
2023-03-03T02:10:25.181Z,8.30
2023-03-03T02:12:58.066Z,8.40
2023-03-03T02:15:35.997Z,8.30
2023-03-03T02:18:11.843Z,8.10
2023-03-03T02:21:19.634Z,8.30
2023-03-03T02:24:16.686Z,8.30
2023-03-03T02:26:48.686Z,8.20
2023-03-03T02:29:20.140Z,8.40
2023-03-03T02:31:52.420Z,8.30
2023-03-03T02:34:24.840Z,8.50
2023-03-03T02:36:55.709Z,8.30
2023-03-03T02:39:30.092Z,8.20
2023-03-03T02:42:09.813Z,8.00
2023-03-03T02:44:41.197Z,8.30
2023-03-03T02:47:12.088Z,8.10
2023-03-03T02:49:43.317Z,8.40
2023-03-03T02:52:14.945Z,8.40
2023-03-03T02:54:46.040Z,8.30
2023-03-03T02:57:16.925Z,8.30
2023-03-03T02:59:47.849Z,8.50
2023-03-03T03:02:19.494Z,8.40
2023-03-03T03:04:50.366Z,8.70
2023-03-03T03:07:21.261Z,8.50
2023-03-03T03:09:52.171Z,8.30
2023-03-03T03:12:23.073Z,8.70
2023-03-03T03:14:53.939Z,8.90
2023-03-03T03:17:24.886Z,9.20
2023-03-03T03:19:55.763Z,8.80
2023-03-03T03:22:26.701Z,9.00
2023-03-03T03:24:57.671Z,9.20
2023-03-03T03:27:28.600Z,9.30
2023-03-03T03:29:59.496Z,9.40
2023-03-03T03:32:30.447Z,9.20
2023-03-03T03:35:01.404Z,8.90
2023-03-03T03:37:32.277Z,9.30
2023-03-03T03:40:03.488Z,9.10
2023-03-03T03:42:34.388Z,9.00
2023-03-03T03:45:06.150Z,9.30
2023-03-03T03:47:37.037Z,9.20
2023-03-03T03:50:09.778Z,9.40
2023-03-03T03:52:40.735Z,9.40
2023-03-03T03:55:11.647Z,9.30
2023-03-03T03:57:43.000Z,9.10
2023-03-03T04:00:14.400Z,9.30
2023-03-03T04:02:45.451Z,9.40
2023-03-03T04:05:16.900Z,9.40
2023-03-03T04:07:47.825Z,9.30
2023-03-03T04:10:18.827Z,9.40
2023-03-03T04:12:49.805Z,9.30
2023-03-03T04:15:20.831Z,9.10
2023-03-03T04:17:51.742Z,9.10
2023-03-03T04:20:22.624Z,9.20
2023-03-03T04:22:53.582Z,9.20
2023-03-03T04:25:24.913Z,9.60
2023-03-03T04:27:55.812Z,9.50
2023-03-03T04:30:27.079Z,9.60
2023-03-03T04:32:57.943Z,9.60
2023-03-03T04:35:28.901Z,9.40
2023-03-03T04:38:00.075Z,9.40
2023-03-03T04:40:31.234Z,9.70
2023-03-03T04:43:02.129Z,9.50
2023-03-03T04:45:32.971Z,9.70
2023-03-03T04:48:04.456Z,9.90
2023-03-03T04:50:35.400Z,9.60
2023-03-03T04:53:06.388Z,9.70
2023-03-03T04:55:38.065Z,9.80
2023-03-03T04:58:10.400Z,9.90
2023-03-03T05:00:41.297Z,10.00
2023-03-03T05:03:13.354Z,10.20
2023-03-03T05:05:44.251Z,10.30
2023-03-03T05:08:15.500Z,10.40
2023-03-03T05:10:46.430Z,10.20
2023-03-03T05:13:17.396Z,10.20
2023-03-03T05:15:53.605Z,10.20
2023-03-03T05:18:26.127Z,10.30
2023-03-03T05:20:57.182Z,10.20
2023-03-03T05:23:28.252Z,10.00
2023-03-03T05:25:59.182Z,10.30
2023-03-03T05:28:30.148Z,10.00
2023-03-03T05:31:01.077Z,10.10
2023-03-03T05:33:32.036Z,10.10
2023-03-03T05:36:02.966Z,9.90
2023-03-03T05:38:33.890Z,10.30
2023-03-03T05:41:05.024Z,10.20
2023-03-03T05:43:35.976Z,10.10
2023-03-03T05:46:07.748Z,10.20
2023-03-03T05:48:38.918Z,10.20
2023-03-03T05:51:09.847Z,10.20
2023-03-03T05:53:40.836Z,10.10
2023-03-03T05:56:11.752Z,10.20
2023-03-03T05:58:42.933Z,10.20
2023-03-03T06:01:13.797Z,10.10
2023-03-03T06:03:44.726Z,10.30
2023-03-03T06:06:17.088Z,10.40
2023-03-03T06:08:48.003Z,10.40
2023-03-03T06:11:19.463Z,10.10
2023-03-03T06:13:50.449Z,10.10
2023-03-03T06:16:21.490Z,10.10
2023-03-03T06:18:52.390Z,10.30
2023-03-03T06:21:23.381Z,10.50
2023-03-03T06:23:54.478Z,10.40
2023-03-03T06:26:25.430Z,10.30
2023-03-03T06:28:56.389Z,10.50
2023-03-03T06:31:28.009Z,10.50
2023-03-03T06:33:59.228Z,10.30
2023-03-03T06:36:30.139Z,10.30
2023-03-03T06:39:01.191Z,10.30
2023-03-03T06:41:32.096Z,10.40
2023-03-03T06:44:03.211Z,10.50
2023-03-03T06:46:34.125Z,10.30
2023-03-03T06:49:05.262Z,10.30
2023-03-03T06:51:40.100Z,10.40
2023-03-03T06:54:20.998Z,10.20
2023-03-03T06:56:58.598Z,10.20
2023-03-03T06:59:29.536Z,10.20
2023-03-03T07:02:00.609Z,10.20
2023-03-03T07:04:33.987Z,10.40
2023-03-03T07:07:17.833Z,10.50
2023-03-03T07:09:52.040Z,10.50
2023-03-03T07:12:27.534Z,10.50
2023-03-03T07:15:30.532Z,10.50
2023-03-03T07:18:02.556Z,10.40
2023-03-03T07:20:39.695Z,10.60
2023-03-03T07:23:42.530Z,10.70
2023-03-03T07:26:24.933Z,10.70
2023-03-03T07:29:03.807Z,10.90
2023-03-03T07:31:57.868Z,10.80
2023-03-03T07:34:41.059Z,10.80
2023-03-03T07:37:32.190Z,10.80
2023-03-03T07:40:32.528Z,11.00
2023-03-03T07:43:34.531Z,10.60
2023-03-03T07:46:11.545Z,10.50
2023-03-03T07:48:43.366Z,10.60
2023-03-03T07:51:27.726Z,11.20
2023-03-03T07:54:40.405Z,10.80
2023-03-03T07:57:31.502Z,11.00
2023-03-03T08:00:18.836Z,10.90
2023-03-03T08:03:05.566Z,11.10
2023-03-03T08:05:44.715Z,10.70
2023-03-03T08:08:35.427Z,10.90
2023-03-03T08:11:09.666Z,10.80
2023-03-03T08:13:43.397Z,11.00
2023-03-03T08:16:14.259Z,10.70
2023-03-03T08:18:51.127Z,10.60
2023-03-03T08:21:24.941Z,10.70
2023-03-03T08:23:55.883Z,11.10
2023-03-03T08:26:27.545Z,11.20
2023-03-03T08:28:58.547Z,11.50
2023-03-03T08:31:40.772Z,11.30
2023-03-03T08:34:12.326Z,11.50
2023-03-03T08:36:43.184Z,11.50
2023-03-03T08:39:14.058Z,11.40
2023-03-03T08:41:46.256Z,11.30
2023-03-03T08:44:17.134Z,11.40
2023-03-03T08:46:48.075Z,11.50
2023-03-03T08:49:19.046Z,11.30
2023-03-03T08:51:49.938Z,11.20
2023-03-03T08:54:21.058Z,11.20
2023-03-03T08:56:52.044Z,11.00
2023-03-03T08:59:23.216Z,11.30
2023-03-03T09:01:54.152Z,11.40
2023-03-03T09:04:25.065Z,11.40
2023-03-03T09:06:55.953Z,11.40
2023-03-03T09:09:26.902Z,11.50
2023-03-03T09:12:18.670Z,11.60
2023-03-03T09:14:51.591Z,11.80
2023-03-03T09:17:37.213Z,11.70
2023-03-03T09:20:37.031Z,11.70
2023-03-03T09:23:41.417Z,11.60
2023-03-03T09:26:26.812Z,11.90
2023-03-03T09:29:39.616Z,12.10
2023-03-03T09:32:35.177Z,12.50
2023-03-03T09:35:42.631Z,12.20
2023-03-03T09:38:27.854Z,12.30
2023-03-03T09:41:45.120Z,12.40
2023-03-03T09:44:31.116Z,12.40
2023-03-03T09:47:39.240Z,12.40
2023-03-03T09:50:35.704Z,13.00
2023-03-03T09:53:50.970Z,13.30
2023-03-03T09:56:46.365Z,13.40
2023-03-03T09:59:32.426Z,12.90
2023-03-03T10:02:51.795Z,12.90
2023-03-03T10:06:13.098Z,13.00
2023-03-03T10:08:58.483Z,13.40
2023-03-03T10:11:56.345Z,13.20
2023-03-03T10:15:05.188Z,13.30
2023-03-03T10:17:49.972Z,13.40
2023-03-03T10:20:51.271Z,13.60
2023-03-03T10:23:58.355Z,13.70
2023-03-03T10:27:19.147Z,13.50
2023-03-03T10:30:12.327Z,13.10
2023-03-03T10:33:28.915Z,12.80
2023-03-03T10:36:24.857Z,13.10
2023-03-03T10:39:39.970Z,13.40
2023-03-03T10:42:30.061Z,13.60
2023-03-03T10:45:13.170Z,13.70
2023-03-03T10:48:44.643Z,13.80
2023-03-03T10:51:22.938Z,13.90
2023-03-03T10:54:31.465Z,14.00
2023-03-03T10:57:18.252Z,13.90
2023-03-03T11:00:24.621Z,14.50
2023-03-03T11:03:35.237Z,14.20
2023-03-03T11:06:43.314Z,14.20
2023-03-03T11:09:37.899Z,14.50
2023-03-03T11:12:23.612Z,14.40
2023-03-03T11:15:22.068Z,15.10
2023-03-03T11:18:30.370Z,14.60
2023-03-03T11:21:32.824Z,14.70
2023-03-03T11:24:33.437Z,14.80
2023-03-03T11:27:26.670Z,14.70
2023-03-03T11:30:40.917Z,14.50
2023-03-03T11:33:35.614Z,14.40
2023-03-03T11:36:17.128Z,14.40
2023-03-03T11:38:57.120Z,14.50
2023-03-03T11:41:46.451Z,14.70
2023-03-03T11:44:38.161Z,14.20
2023-03-03T11:47:26.832Z,14.30
2023-03-03T11:50:26.603Z,14.50
2023-03-03T11:53:06.208Z,14.70
2023-03-03T11:55:40.215Z,15.10
2023-03-03T11:58:32.426Z,14.80
2023-03-03T12:01:26.059Z,15.10
2023-03-03T12:04:19.466Z,15.30
2023-03-03T12:07:20.607Z,15.70
2023-03-03T12:10:06.496Z,15.40
2023-03-03T12:13:01.538Z,16.20
2023-03-03T12:15:55.850Z,16.40
2023-03-03T12:19:03.611Z,16.10
2023-03-03T12:21:52.368Z,16.70
2023-03-03T12:24:52.085Z,16.40
2023-03-03T12:27:31.934Z,16.60
2023-03-03T12:30:26.228Z,16.00
2023-03-03T12:33:25.809Z,16.40
2023-03-03T12:36:05.679Z,17.10
2023-03-03T12:39:53.435Z,17.10
2023-03-03T12:43:05.895Z,17.10
2023-03-03T12:45:57.839Z,17.00
2023-03-03T12:48:47.674Z,17.30
2023-03-03T12:51:56.308Z,17.30
2023-03-03T12:54:49.916Z,17.80
2023-03-03T12:58:13.231Z,17.70
2023-03-03T13:01:12.320Z,17.70
2023-03-03T13:04:08.455Z,17.50
2023-03-03T13:07:14.571Z,17.70
2023-03-03T13:10:38.944Z,17.70
2023-03-03T13:13:37.848Z,17.00
2023-03-03T13:16:44.962Z,16.80
2023-03-03T13:19:32.846Z,17.60
2023-03-03T13:22:29.939Z,18.00
2023-03-03T13:25:31.699Z,17.90
2023-03-03T13:28:53.176Z,18.10
2023-03-03T13:31:37.436Z,18.10
2023-03-03T13:34:24.113Z,18.30
2023-03-03T13:37:07.199Z,18.00
2023-03-03T13:40:08.735Z,17.90
2023-03-03T13:43:05.222Z,18.10
2023-03-03T13:45:58.418Z,18.60
2023-03-03T13:48:41.169Z,18.00
2023-03-03T13:51:18.314Z,17.90
2023-03-03T13:54:16.210Z,18.10
2023-03-03T13:56:55.855Z,18.40
2023-03-03T13:59:45.499Z,18.50
2023-03-03T14:02:57.239Z,17.90
2023-03-03T14:05:42.925Z,18.30
2023-03-03T14:08:43.227Z,17.80
2023-03-03T14:11:30.943Z,18.80
2023-03-03T14:14:29.557Z,19.00
2023-03-03T14:17:28.425Z,18.90
2023-03-03T14:20:18.286Z,19.00
2023-03-03T14:22:53.659Z,18.80
2023-03-03T14:25:25.115Z,19.20
2023-03-03T14:28:11.291Z,19.20
2023-03-03T14:30:44.259Z,17.60
2023-03-03T14:33:20.526Z,18.60
2023-03-03T14:36:03.638Z,18.60
2023-03-03T14:38:34.590Z,18.60
2023-03-03T14:41:16.120Z,18.90
2023-03-03T14:44:00.431Z,19.10
2023-03-03T14:46:39.673Z,18.90
2023-03-03T14:49:30.599Z,18.50
2023-03-03T14:52:16.325Z,18.60
2023-03-03T14:54:56.838Z,18.20
2023-03-03T14:57:48.793Z,18.30
2023-03-03T15:00:19.700Z,18.10
2023-03-03T15:03:14.919Z,18.50
2023-03-03T15:05:58.187Z,19.00
2023-03-03T15:08:35.840Z,19.10
2023-03-03T15:11:18.889Z,18.50
2023-03-03T15:13:49.990Z,18.10
2023-03-03T15:16:31.997Z,18.90
2023-03-03T15:19:50.985Z,19.10
2023-03-03T15:22:37.132Z,18.50
2023-03-03T15:25:42.863Z,18.50
2023-03-03T15:28:29.800Z,18.10
2023-03-03T15:31:24.078Z,18.30
2023-03-03T15:34:19.881Z,17.50
2023-03-03T15:37:09.374Z,17.90
2023-03-03T15:40:09.768Z,17.30
2023-03-03T15:43:25.117Z,17.40
2023-03-03T15:46:28.191Z,17.40
2023-03-03T15:49:30.138Z,17.40
2023-03-03T15:52:21.598Z,17.00
2023-03-03T15:55:32.809Z,17.40
2023-03-03T15:58:36.288Z,17.70
2023-03-03T16:01:33.573Z,17.80
2023-03-03T16:04:17.072Z,17.90
2023-03-03T16:07:13.891Z,17.30
2023-03-03T16:10:06.569Z,17.30
2023-03-03T16:12:59.192Z,17.50
2023-03-03T16:15:54.595Z,17.40
2023-03-03T16:18:52.056Z,17.40
2023-03-03T16:22:04.139Z,16.90
2023-03-03T16:24:56.262Z,17.00
2023-03-03T16:27:38.474Z,16.80
2023-03-03T16:30:48.163Z,16.80
2023-03-03T16:33:49.234Z,17.10
2023-03-03T16:36:41.443Z,17.00
2023-03-03T16:39:52.024Z,17.10
2023-03-03T16:42:34.093Z,16.40
2023-03-03T16:45:33.866Z,16.80
2023-03-03T16:48:14.776Z,16.80
2023-03-03T16:51:09.688Z,16.60
2023-03-03T16:54:06.504Z,16.40
2023-03-03T16:56:47.902Z,16.50
2023-03-03T16:59:42.855Z,16.40
2023-03-03T17:02:44.730Z,16.20
2023-03-03T17:05:58.026Z,16.30
2023-03-03T17:08:41.781Z,15.90
2023-03-03T17:11:44.335Z,15.80
2023-03-03T17:14:57.458Z,15.90
2023-03-03T17:17:58.951Z,16.60
2023-03-03T17:20:51.133Z,15.90
2023-03-03T17:23:33.422Z,15.70
2023-03-03T17:26:17.290Z,15.50
2023-03-03T17:29:18.982Z,15.30
2023-03-03T17:32:20.768Z,15.30
2023-03-03T17:35:29.275Z,15.10
2023-03-03T17:38:19.139Z,15.00
2023-03-03T17:40:58.848Z,14.90
2023-03-03T17:43:54.052Z,14.80
2023-03-03T17:46:54.142Z,14.70
2023-03-03T17:50:06.093Z,14.60
2023-03-03T17:53:07.995Z,14.30
2023-03-03T17:55:56.795Z,14.30
2023-03-03T17:58:27.609Z,14.00
2023-03-03T18:01:10.101Z,13.90
2023-03-03T18:04:04.986Z,13.80
2023-03-03T18:07:07.563Z,13.80
2023-03-03T18:10:07.473Z,13.50
2023-03-03T18:12:49.723Z,15.00
2023-03-03T18:16:10.399Z,15.50
2023-03-03T18:19:12.876Z,14.40
2023-03-03T18:21:43.856Z,14.00
2023-03-03T18:24:54.915Z,13.70
2023-03-03T18:27:25.805Z,13.40
2023-03-03T18:30:17.830Z,13.10
2023-03-03T18:33:11.684Z,13.10
2023-03-03T18:35:46.023Z,13.00
2023-03-03T18:38:16.929Z,12.90
2023-03-03T18:41:13.310Z,12.90
2023-03-03T18:43:44.145Z,12.70
2023-03-03T18:46:22.683Z,12.70
2023-03-03T18:49:00.396Z,12.60
2023-03-03T18:51:40.837Z,12.50
2023-03-03T18:54:17.328Z,12.30
2023-03-03T18:56:54.220Z,12.10
2023-03-03T18:59:30.834Z,12.40
2023-03-03T19:02:13.484Z,12.30
2023-03-03T19:04:55.833Z,12.10
2023-03-03T19:07:30.827Z,12.10
2023-03-03T19:10:14.358Z,12.30
2023-03-03T19:12:56.126Z,13.40
2023-03-03T19:15:30.192Z,14.70
2023-03-03T19:18:15.619Z,13.70
2023-03-03T19:20:58.743Z,13.30
2023-03-03T19:23:49.789Z,12.90
2023-03-03T19:26:45.009Z,12.50
2023-03-03T19:29:46.214Z,12.40
2023-03-03T19:32:33.168Z,12.10
2023-03-03T19:35:21.359Z,12.40
2023-03-03T19:38:08.314Z,12.20
2023-03-03T19:41:13.001Z,11.90
2023-03-03T19:44:06.332Z,11.90
2023-03-03T19:46:43.064Z,11.70
2023-03-03T19:49:27.362Z,11.90
2023-03-03T19:52:33.096Z,12.00
2023-03-03T19:55:28.250Z,11.80
2023-03-03T19:58:25.031Z,11.70
2023-03-03T20:01:22.031Z,11.60
2023-03-03T20:04:33.205Z,11.50
2023-03-03T20:07:31.365Z,11.70
2023-03-03T20:10:37.611Z,11.30
2023-03-03T20:14:14.425Z,11.40
2023-03-03T20:16:48.310Z,11.40
2023-03-03T20:19:43.681Z,11.20
2023-03-03T20:22:47.495Z,11.30
2023-03-03T20:25:38.278Z,11.30
2023-03-03T20:28:53.015Z,10.90
2023-03-03T20:31:31.878Z,10.80
2023-03-03T20:34:28.416Z,10.90
2023-03-03T20:37:10.523Z,10.80
2023-03-03T20:40:14.484Z,10.70
2023-03-03T20:43:11.748Z,10.80
2023-03-03T20:46:10.403Z,10.80
2023-03-03T20:49:25.539Z,10.80
2023-03-03T20:52:22.062Z,10.40
2023-03-03T20:55:26.217Z,10.50
2023-03-03T20:58:07.817Z,10.40
2023-03-03T21:00:52.299Z,10.60
2023-03-03T21:03:35.273Z,10.30
2023-03-03T21:06:15.351Z,10.40
2023-03-03T21:08:57.224Z,10.30
2023-03-03T21:11:31.053Z,10.20
2023-03-03T21:14:19.595Z,10.20
2023-03-03T21:16:53.372Z,10.20
2023-03-03T21:19:28.616Z,10.20
2023-03-03T21:22:02.330Z,10.20
2023-03-03T21:24:54.865Z,9.90
2023-03-03T21:27:30.938Z,10.00
2023-03-03T21:30:07.623Z,10.10
2023-03-03T21:32:49.119Z,10.00
2023-03-03T21:35:22.263Z,10.00
2023-03-03T21:37:56.343Z,9.90
2023-03-03T21:40:30.663Z,10.00
2023-03-03T21:43:01.874Z,9.70
2023-03-03T21:45:32.790Z,9.80
2023-03-03T21:48:04.657Z,9.80
2023-03-03T21:50:37.021Z,9.60
2023-03-03T21:53:07.872Z,9.90
2023-03-03T21:55:38.758Z,9.50
2023-03-03T21:58:09.679Z,9.60
2023-03-03T22:00:40.636Z,9.70
2023-03-03T22:03:13.624Z,9.80
2023-03-03T22:05:44.614Z,9.80
2023-03-03T22:08:22.619Z,9.80
2023-03-03T22:10:56.733Z,9.70
2023-03-03T22:13:27.983Z,9.70
2023-03-03T22:15:58.994Z,9.60
2023-03-03T22:18:29.911Z,9.60
2023-03-03T22:21:00.825Z,9.40
2023-03-03T22:23:32.811Z,9.60
2023-03-03T22:26:05.430Z,9.40
2023-03-03T22:28:36.343Z,9.50
2023-03-03T22:31:07.332Z,9.40
2023-03-03T22:33:38.223Z,9.40
2023-03-03T22:36:09.646Z,9.60
2023-03-03T22:38:40.698Z,9.40
2023-03-03T22:41:11.804Z,9.40
2023-03-03T22:43:43.007Z,9.30
2023-03-03T22:46:14.408Z,9.40
2023-03-03T22:48:45.347Z,9.50
2023-03-03T22:51:16.275Z,9.20
2023-03-03T22:53:47.144Z,9.30
2023-03-03T22:56:18.173Z,9.00
2023-03-03T22:58:49.587Z,9.10
2023-03-03T23:01:20.480Z,8.90
2023-03-03T23:03:51.423Z,9.00
2023-03-03T23:06:22.335Z,9.00
2023-03-03T23:08:53.222Z,9.00
2023-03-03T23:11:24.785Z,9.20
2023-03-03T23:13:55.659Z,9.30
2023-03-03T23:16:26.970Z,9.10
2023-03-03T23:18:57.859Z,8.80
2023-03-03T23:21:28.831Z,9.10
2023-03-03T23:24:00.028Z,9.10
2023-03-03T23:26:30.939Z,9.30
2023-03-03T23:29:02.221Z,9.30
2023-03-03T23:31:33.235Z,9.20
2023-03-03T23:34:04.209Z,9.50
2023-03-03T23:36:35.219Z,9.20
2023-03-03T23:39:06.492Z,9.20
2023-03-03T23:41:38.479Z,9.20
2023-03-03T23:44:09.392Z,8.70
2023-03-03T23:46:41.334Z,8.80
2023-03-03T23:49:12.610Z,8.80
2023-03-03T23:51:43.870Z,8.90
2023-03-03T23:54:14.820Z,8.60
2023-03-03T23:56:45.860Z,9.10
2023-03-03T23:59:16.962Z,8.90
